createdAt,value
2023-02-11T00:02:05.975Z,-1.88
2023-02-11T00:04:34.720Z,-1.81
2023-02-11T00:07:03.653Z,-1.21
2023-02-11T00:09:32.003Z,-1.33
2023-02-11T00:11:59.865Z,-0.99
2023-02-11T00:14:27.606Z,-1.59
2023-02-11T00:16:56.525Z,-1.02
2023-02-11T00:19:25.258Z,-1.61
2023-02-11T00:21:53.172Z,-1.29
2023-02-11T00:24:20.940Z,-0.95
2023-02-11T00:26:48.681Z,-1.23
2023-02-11T00:29:16.645Z,-1.66
2023-02-11T00:31:44.616Z,-1.16
2023-02-11T00:34:12.390Z,-1.36
2023-02-11T00:36:40.361Z,-1.16
2023-02-11T00:39:09.728Z,-1.48
2023-02-11T00:41:38.775Z,-1.46
2023-02-11T00:44:07.294Z,-2.01
2023-02-11T00:46:34.964Z,-1.89
2023-02-11T00:49:03.323Z,-2.04
2023-02-11T00:51:30.757Z,-2.12
2023-02-11T00:53:58.528Z,-1.79
2023-02-11T00:56:26.012Z,-1.53
2023-02-11T00:58:54.532Z,-1.46
2023-02-11T01:01:22.220Z,-1.70
2023-02-11T01:03:50.179Z,-1.31
2023-02-11T01:06:18.309Z,-1.89
2023-02-11T01:08:46.358Z,-2.27
2023-02-11T01:11:20.048Z,-1.96
2023-02-11T01:13:49.348Z,-1.79
2023-02-11T01:16:21.058Z,-1.73
2023-02-11T01:18:49.490Z,-1.79
2023-02-11T01:21:19.297Z,-2.08
2023-02-11T01:23:46.914Z,-1.90
2023-02-11T01:26:14.744Z,-1.75
2023-02-11T01:28:42.435Z,-1.95
2023-02-11T01:31:10.124Z,-2.18
2023-02-11T01:33:37.780Z,-1.94
2023-02-11T01:36:08.589Z,-1.99
2023-02-11T01:38:36.779Z,-1.74
2023-02-11T01:41:07.893Z,-1.96
2023-02-11T01:43:42.483Z,-1.51
2023-02-11T01:46:31.764Z,-1.28
2023-02-11T01:49:11.223Z,-2.09
2023-02-11T01:51:41.198Z,-1.47
2023-02-11T01:54:30.997Z,-1.83
2023-02-11T01:57:19.428Z,-1.63
2023-02-11T02:00:00.266Z,-1.18
2023-02-11T02:02:37.602Z,-1.46
2023-02-11T02:05:11.104Z,-0.96
2023-02-11T02:08:20.587Z,-1.41
2023-02-11T02:10:54.863Z,-1.31
2023-02-11T02:13:26.253Z,-0.86
2023-02-11T02:15:56.111Z,-1.06
2023-02-11T02:18:35.827Z,-0.79
2023-02-11T02:21:09.751Z,-0.70
2023-02-11T02:24:16.161Z,-0.81
2023-02-11T02:27:17.990Z,-0.90
2023-02-11T02:30:30.132Z,-1.08
2023-02-11T02:33:21.658Z,-1.64
2023-02-11T02:35:59.116Z,-1.32
2023-02-11T02:38:49.169Z,-1.25
2023-02-11T02:41:20.471Z,-1.63
2023-02-11T02:43:52.781Z,-2.18
2023-02-11T02:46:28.413Z,-1.91
2023-02-11T02:48:58.454Z,-1.79
2023-02-11T02:51:52.573Z,-1.66
2023-02-11T02:54:52.814Z,-1.63
2023-02-11T02:57:33.191Z,-1.74
2023-02-11T03:00:05.723Z,-1.98
2023-02-11T03:02:54.787Z,-1.60
2023-02-11T03:05:40.532Z,-2.45
2023-02-11T03:08:10.077Z,-2.13
2023-02-11T03:10:49.370Z,-2.41
2023-02-11T03:13:20.570Z,-1.69
2023-02-11T03:15:52.692Z,-1.82
2023-02-11T03:18:25.677Z,-2.10
2023-02-11T03:20:54.898Z,-1.80
2023-02-11T03:23:26.177Z,-1.87
2023-02-11T03:25:58.982Z,-2.15
2023-02-11T03:28:49.711Z,-1.82
2023-02-11T03:31:29.893Z,-1.88
2023-02-11T03:34:06.968Z,-1.84
2023-02-11T03:36:51.492Z,-2.34
2023-02-11T03:39:24.505Z,-2.40
2023-02-11T03:41:53.511Z,-1.52
2023-02-11T03:44:27.009Z,-1.54
2023-02-11T03:46:57.035Z,-2.31
2023-02-11T03:49:28.550Z,-2.02
2023-02-11T03:51:58.378Z,-2.00
2023-02-11T03:54:30.909Z,-1.87
2023-02-11T03:57:02.535Z,-2.00
2023-02-11T03:59:31.425Z,-1.73
2023-02-11T04:01:59.932Z,-2.11
2023-02-11T04:04:28.784Z,-2.26
2023-02-11T04:06:57.969Z,-1.62
2023-02-11T04:09:25.951Z,-1.88
2023-02-11T04:11:54.508Z,-1.93
2023-02-11T04:14:24.216Z,-1.85
2023-02-11T04:16:52.359Z,-2.20
2023-02-11T04:19:20.519Z,-2.20
2023-02-11T04:21:48.788Z,-2.62
2023-02-11T04:24:17.266Z,-1.88
2023-02-11T04:26:45.089Z,-2.72
2023-02-11T04:29:14.187Z,-2.45
2023-02-11T04:31:43.038Z,-2.26
2023-02-11T04:34:11.076Z,-2.15
2023-02-11T04:36:40.083Z,-1.85
2023-02-11T04:39:09.021Z,-1.86
2023-02-11T04:41:36.915Z,-1.84
2023-02-11T04:44:07.787Z,-2.47
2023-02-11T04:46:38.092Z,-2.15
2023-02-11T04:49:06.631Z,-2.58
2023-02-11T04:51:35.477Z,-2.57
2023-02-11T04:54:04.062Z,-1.98
2023-02-11T04:56:32.395Z,-2.36
2023-02-11T04:59:00.723Z,-2.48
2023-02-11T05:01:28.934Z,-2.39
2023-02-11T05:03:57.499Z,-2.62
2023-02-11T05:06:25.424Z,-1.94
2023-02-11T05:08:53.759Z,-2.20
2023-02-11T05:11:23.913Z,-1.99
2023-02-11T05:13:53.305Z,-2.51
2023-02-11T05:16:21.707Z,-2.58
2023-02-11T05:18:52.579Z,-2.60
2023-02-11T05:21:21.026Z,-2.41
2023-02-11T05:23:49.690Z,-2.26
2023-02-11T05:26:18.125Z,-2.92
2023-02-11T05:28:46.949Z,-2.62
2023-02-11T05:31:15.043Z,-2.23
2023-02-11T05:33:43.712Z,-3.07
2023-02-11T05:36:14.847Z,-2.72
2023-02-11T05:38:43.679Z,-2.72
2023-02-11T05:41:12.626Z,-2.74
2023-02-11T05:43:41.505Z,-2.57
2023-02-11T05:46:09.730Z,-3.30
2023-02-11T05:48:38.463Z,-2.92
2023-02-11T05:51:07.797Z,-3.21
2023-02-11T05:53:36.906Z,-3.38
2023-02-11T05:56:05.188Z,-3.41
2023-02-11T05:58:33.730Z,-3.64
2023-02-11T06:01:03.042Z,-3.10
2023-02-11T06:03:31.769Z,-3.72
2023-02-11T06:06:00.088Z,-3.75
2023-02-11T06:08:27.621Z,-3.01
2023-02-11T06:10:55.190Z,-3.14
2023-02-11T06:13:22.859Z,-3.11
2023-02-11T06:15:58.357Z,-3.33
2023-02-11T06:18:26.633Z,-3.54
2023-02-11T06:20:54.530Z,-3.22
2023-02-11T06:23:23.295Z,-3.26
2023-02-11T06:25:51.855Z,-3.10
2023-02-11T06:28:19.981Z,-3.23
2023-02-11T06:30:47.777Z,-3.02
2023-02-11T06:33:16.746Z,-2.97
2023-02-11T06:35:44.693Z,-2.59
2023-02-11T06:38:12.189Z,-2.68
2023-02-11T06:40:40.601Z,-3.08
2023-02-11T06:43:08.635Z,-2.47
2023-02-11T06:45:36.338Z,-2.36
2023-02-11T06:48:04.321Z,-2.20
2023-02-11T06:50:31.998Z,-2.62
2023-02-11T06:53:00.162Z,-1.76
2023-02-11T06:55:28.133Z,-2.47
2023-02-11T06:57:55.810Z,-2.31
2023-02-11T07:00:24.643Z,-1.90
2023-02-11T07:02:52.049Z,-1.71
2023-02-11T07:05:19.433Z,-1.41
2023-02-11T07:07:47.048Z,-1.57
2023-02-11T07:10:15.025Z,-1.67
2023-02-11T07:12:42.690Z,-0.79
2023-02-11T07:15:11.149Z,-1.43
2023-02-11T07:17:38.299Z,-0.93
2023-02-11T07:20:06.077Z,-0.83
2023-02-11T07:22:34.842Z,-0.73
2023-02-11T07:25:04.950Z,-0.67
2023-02-11T07:27:33.087Z,-0.54
2023-02-11T07:30:00.955Z,-0.90
2023-02-11T07:32:30.353Z,-0.35
2023-02-11T07:34:59.612Z,0.11
2023-02-11T07:37:31.477Z,-0.30
2023-02-11T07:40:02.834Z,0.02
2023-02-11T07:42:32.673Z,-0.22
2023-02-11T07:45:03.441Z,-0.03
2023-02-11T07:47:31.776Z,0.39
2023-02-11T07:50:00.867Z,0.31
2023-02-11T07:52:36.211Z,0.24
2023-02-11T07:55:05.168Z,0.81
2023-02-11T07:57:33.758Z,0.89
2023-02-11T08:00:02.344Z,0.52
2023-02-11T08:02:38.510Z,0.63
2023-02-11T08:05:06.463Z,0.70
2023-02-11T08:07:34.454Z,0.86
2023-02-11T08:10:03.928Z,0.87
2023-02-11T08:12:31.608Z,0.76
2023-02-11T08:14:59.340Z,1.18
2023-02-11T08:17:27.168Z,1.22
2023-02-11T08:19:55.547Z,1.19
2023-02-11T08:22:24.008Z,1.01
2023-02-11T08:24:52.467Z,1.53
2023-02-11T08:27:19.857Z,1.91
2023-02-11T08:29:47.583Z,1.55
2023-02-11T08:32:15.759Z,1.39
2023-02-11T08:34:43.822Z,2.03
2023-02-11T08:37:11.915Z,1.92
2023-02-11T08:39:42.066Z,2.09
2023-02-11T08:42:18.914Z,1.80
2023-02-11T08:44:46.461Z,2.08
2023-02-11T08:47:13.656Z,2.36
2023-02-11T08:49:42.560Z,2.48
2023-02-11T08:52:10.464Z,2.31
2023-02-11T08:54:39.734Z,2.30
2023-02-11T08:57:07.345Z,2.39
2023-02-11T08:59:35.179Z,2.40
2023-02-11T09:02:03.216Z,2.74
2023-02-11T09:04:30.730Z,2.88
2023-02-11T09:06:59.390Z,2.90
2023-02-11T09:09:28.078Z,2.28
2023-02-11T09:11:57.407Z,3.10
2023-02-11T09:14:27.992Z,3.17
2023-02-11T09:16:55.610Z,2.81
2023-02-11T09:19:23.502Z,2.45
2023-02-11T09:21:51.067Z,2.96
2023-02-11T09:24:21.063Z,2.72
2023-02-11T09:26:50.093Z,3.29
2023-02-11T09:29:18.057Z,3.44
2023-02-11T09:31:47.484Z,3.56
2023-02-11T09:34:16.063Z,3.65
2023-02-11T09:36:43.807Z,3.67
2023-02-11T09:39:19.826Z,3.82
2023-02-11T09:41:52.824Z,3.99
2023-02-11T09:44:23.856Z,3.96
2023-02-11T09:46:58.828Z,3.92
2023-02-11T09:49:44.864Z,3.47
2023-02-11T09:52:33.892Z,3.91
2023-02-11T09:55:05.813Z,4.26
2023-02-11T09:57:37.809Z,4.25
2023-02-11T10:00:53.633Z,4.37
2023-02-11T10:03:53.751Z,4.63
2023-02-11T10:06:42.340Z,4.41
2023-02-11T10:09:27.789Z,4.56
2023-02-11T10:12:35.836Z,4.73
2023-02-11T10:15:08.249Z,4.77
2023-02-11T10:17:53.974Z,4.93
2023-02-11T10:20:32.482Z,4.78
2023-02-11T10:23:03.405Z,4.99
2023-02-11T10:25:51.199Z,4.46
2023-02-11T10:28:21.738Z,5.04
2023-02-11T10:31:07.287Z,4.97
2023-02-11T10:33:50.022Z,5.09
2023-02-11T10:36:19.103Z,5.34
2023-02-11T10:38:46.901Z,4.97
2023-02-11T10:41:34.632Z,4.82
2023-02-11T10:44:02.068Z,5.04
2023-02-11T10:46:38.221Z,5.29
2023-02-11T10:49:05.468Z,5.46
2023-02-11T10:51:34.639Z,5.27
2023-02-11T10:54:05.138Z,5.51
2023-02-11T10:56:38.238Z,5.68
2023-02-11T10:59:14.738Z,5.79
2023-02-11T11:01:59.453Z,5.78
2023-02-11T11:04:35.935Z,5.75
2023-02-11T11:07:28.619Z,5.66
2023-02-11T11:10:03.418Z,6.05
2023-02-11T11:12:44.878Z,6.02
2023-02-11T11:15:31.266Z,5.81
2023-02-11T11:18:22.872Z,6.18
2023-02-11T11:21:00.071Z,6.36
2023-02-11T11:23:30.279Z,6.34
2023-02-11T11:26:07.125Z,6.17
2023-02-11T11:28:41.434Z,5.91
2023-02-11T11:31:19.318Z,6.18
2023-02-11T11:33:48.524Z,6.45
2023-02-11T11:36:31.792Z,6.46
2023-02-11T11:39:02.370Z,6.85
2023-02-11T11:41:34.362Z,7.02
2023-02-11T11:44:23.731Z,7.14
2023-02-11T11:47:07.569Z,7.26
2023-02-11T11:49:44.108Z,7.50
2023-02-11T11:52:33.122Z,7.10
2023-02-11T11:55:18.406Z,7.48
2023-02-11T11:57:45.863Z,7.48
2023-02-11T12:00:30.922Z,7.51
2023-02-11T12:03:10.919Z,7.75
2023-02-11T12:05:51.889Z,7.92
2023-02-11T12:08:33.261Z,7.67
2023-02-11T12:11:03.468Z,7.78
2023-02-11T12:14:12.302Z,7.72
2023-02-11T12:17:17.129Z,7.87
2023-02-11T12:19:44.258Z,8.16
2023-02-11T12:22:31.464Z,8.17
2023-02-11T12:25:07.928Z,8.35
2023-02-11T12:27:44.427Z,8.57
2023-02-11T12:30:20.878Z,8.59
2023-02-11T12:33:12.838Z,8.76
2023-02-11T12:36:01.673Z,8.37
2023-02-11T12:38:36.072Z,8.23
2023-02-11T12:41:43.509Z,8.49
2023-02-11T12:44:34.615Z,8.53
2023-02-11T12:47:16.959Z,8.37
2023-02-11T12:50:11.058Z,8.61
2023-02-11T12:52:44.309Z,8.67
2023-02-11T12:55:18.547Z,8.53
2023-02-11T12:57:49.391Z,8.73
2023-02-11T13:00:23.583Z,9.21
2023-02-11T13:03:03.521Z,9.14
2023-02-11T13:05:47.000Z,9.26
2023-02-11T13:08:31.430Z,9.48
2023-02-11T13:11:02.458Z,9.56
2023-02-11T13:13:36.126Z,9.53
2023-02-11T13:16:10.165Z,9.65
2023-02-11T13:18:45.706Z,8.99
2023-02-11T13:21:20.071Z,9.31
2023-02-11T13:24:01.333Z,9.30
2023-02-11T13:26:54.383Z,9.40
2023-02-11T13:29:21.710Z,9.56
2023-02-11T13:31:56.880Z,9.46
2023-02-11T13:34:46.979Z,9.12
2023-02-11T13:37:38.047Z,9.24
2023-02-11T13:40:25.370Z,9.31
2023-02-11T13:42:54.370Z,9.27
2023-02-11T13:45:30.809Z,9.48
2023-02-11T13:48:41.420Z,9.13
2023-02-11T13:54:25.729Z,8.36
2023-02-11T13:57:21.160Z,8.91
2023-02-11T13:59:52.776Z,9.05
2023-02-11T14:02:48.269Z,9.05
2023-02-11T14:05:37.168Z,9.15
2023-02-11T14:08:35.322Z,9.18
2023-02-11T14:11:14.578Z,9.04
2023-02-11T14:13:48.003Z,8.96
2023-02-11T14:16:37.090Z,9.05
2023-02-11T14:19:06.481Z,8.35
2023-02-11T14:21:40.480Z,8.52
2023-02-11T14:24:10.942Z,8.43
2023-02-11T14:26:50.516Z,8.42
2023-02-11T14:29:20.253Z,8.44
2023-02-11T14:32:05.910Z,8.33
2023-02-11T14:34:52.075Z,8.39
2023-02-11T14:37:31.525Z,8.27
2023-02-11T14:40:05.558Z,8.04
2023-02-11T14:42:33.088Z,7.72
2023-02-11T14:45:07.704Z,8.27
2023-02-11T14:47:46.697Z,8.18
2023-02-11T14:50:28.265Z,7.90
2023-02-11T14:52:56.004Z,7.91
2023-02-11T14:55:29.613Z,7.97
2023-02-11T15:01:30.711Z,7.17
2023-02-11T15:04:00.675Z,7.73
2023-02-11T15:06:33.019Z,7.74
2023-02-11T15:15:32.857Z,6.55
2023-02-11T15:18:22.881Z,7.40
2023-02-11T15:20:52.596Z,6.34
2023-02-11T15:23:30.973Z,6.25
2023-02-11T15:26:04.389Z,6.65
2023-02-11T15:28:35.669Z,6.53
2023-02-11T15:31:15.097Z,6.56
2023-02-11T15:33:42.489Z,6.58
2023-02-11T15:36:11.974Z,6.39
2023-02-11T15:38:40.506Z,6.56
2023-02-11T15:41:08.829Z,6.61
2023-02-11T15:43:46.915Z,6.56
2023-02-11T15:46:21.263Z,6.26
2023-02-11T15:48:52.105Z,6.33
2023-02-11T15:51:35.696Z,6.57
2023-02-11T15:54:19.541Z,6.40
2023-02-11T15:56:52.214Z,6.30
2023-02-11T15:59:35.664Z,6.42
2023-02-11T16:02:07.739Z,5.83
2023-02-11T16:04:36.594Z,5.64
2023-02-11T16:07:12.383Z,5.19
2023-02-11T16:09:42.996Z,4.73
2023-02-11T16:15:56.114Z,4.91
2023-02-11T16:21:59.467Z,4.43
2023-02-11T16:34:42.194Z,4.23
2023-02-11T16:41:01.020Z,4.45
2023-02-11T16:43:29.257Z,3.94
2023-02-11T16:45:59.109Z,3.80
2023-02-11T16:48:30.433Z,3.80
2023-02-11T16:54:35.255Z,3.76
2023-02-11T16:57:06.230Z,4.34
2023-02-11T16:59:33.899Z,4.02
2023-02-11T17:02:01.814Z,3.66
2023-02-11T17:04:47.491Z,3.99
2023-02-11T17:07:22.809Z,3.62
2023-02-11T17:09:51.921Z,3.69
2023-02-11T17:12:20.045Z,3.94
2023-02-11T17:14:47.711Z,3.81
2023-02-11T17:17:35.289Z,3.56
2023-02-11T17:20:06.022Z,3.50
2023-02-11T17:22:36.198Z,3.12
2023-02-11T17:25:12.269Z,2.76
2023-02-11T17:27:42.502Z,3.08
2023-02-11T17:30:17.515Z,3.13
2023-02-11T17:32:50.893Z,2.65
2023-02-11T17:35:19.621Z,3.21
2023-02-11T17:37:47.117Z,3.33
2023-02-11T17:40:14.809Z,3.37
2023-02-11T17:42:42.253Z,3.36
2023-02-11T17:45:10.940Z,3.55
2023-02-11T17:47:39.820Z,2.66
2023-02-11T17:50:09.056Z,3.03
2023-02-11T17:52:39.593Z,3.24
2023-02-11T17:55:12.532Z,3.21
2023-02-11T17:57:41.644Z,2.79
2023-02-11T18:00:13.394Z,3.10
2023-02-11T18:02:45.800Z,2.23
2023-02-11T18:05:16.805Z,2.78
2023-02-11T18:07:49.315Z,2.52
2023-02-11T18:10:22.467Z,2.77
2023-02-11T18:12:51.942Z,2.93
2023-02-11T18:15:20.624Z,2.29
2023-02-11T18:17:49.642Z,2.18
2023-02-11T18:20:19.229Z,2.66
2023-02-11T18:22:49.973Z,2.28
2023-02-11T18:25:22.451Z,2.15
2023-02-11T18:27:53.654Z,2.60
2023-02-11T18:30:23.045Z,2.33
2023-02-11T18:32:56.961Z,2.01
2023-02-11T18:35:28.631Z,2.51
2023-02-11T18:37:59.191Z,2.18
2023-02-11T18:40:32.396Z,2.16
2023-02-11T18:43:05.856Z,2.28
2023-02-11T18:45:35.347Z,2.09
2023-02-11T18:48:05.753Z,2.82
2023-02-11T18:50:35.399Z,2.36
2023-02-11T18:53:05.533Z,2.18
2023-02-11T18:55:34.874Z,2.55
2023-02-11T18:58:03.251Z,2.59
2023-02-11T19:00:34.557Z,2.43
2023-02-11T19:03:05.023Z,2.95
2023-02-11T19:05:41.049Z,2.92
2023-02-11T19:08:11.250Z,2.16
2023-02-11T19:10:44.660Z,2.63
2023-02-11T19:13:14.608Z,2.79
2023-02-11T19:15:45.548Z,2.71
2023-02-11T19:18:16.948Z,2.84
2023-02-11T19:20:47.825Z,2.89
2023-02-11T19:23:16.516Z,2.24
2023-02-11T19:25:50.263Z,2.69
2023-02-11T19:28:21.073Z,2.73
2023-02-11T19:30:54.949Z,2.65
2023-02-11T19:33:26.565Z,2.71
2023-02-11T19:36:03.507Z,3.30
2023-02-11T19:38:34.812Z,3.38
2023-02-11T19:41:03.502Z,3.77
2023-02-11T19:43:31.988Z,3.12
2023-02-11T19:46:06.130Z,3.37
2023-02-11T19:48:37.790Z,3.52
2023-02-11T19:51:13.130Z,3.22
2023-02-11T19:53:41.977Z,3.84
2023-02-11T19:56:10.061Z,3.48
2023-02-11T19:58:39.840Z,3.75
2023-02-11T20:01:08.597Z,3.69
2023-02-11T20:03:40.767Z,3.47
2023-02-11T20:06:20.623Z,3.27
2023-02-11T20:09:13.150Z,2.66
2023-02-11T20:11:43.746Z,3.17
2023-02-11T20:14:15.364Z,3.10
2023-02-11T20:16:50.104Z,3.43
2023-02-11T20:19:24.324Z,2.97
2023-02-11T20:21:58.765Z,2.91
2023-02-11T20:24:41.998Z,3.40
2023-02-11T20:27:12.825Z,3.03
2023-02-11T20:29:47.382Z,2.50
2023-02-11T20:36:05.563Z,2.54
2023-02-11T20:38:53.029Z,2.47
2023-02-11T20:41:28.950Z,2.76
2023-02-11T20:44:05.321Z,3.22
2023-02-11T20:46:36.090Z,2.93
2023-02-11T20:49:14.571Z,2.74
2023-02-11T20:51:44.578Z,2.50
2023-02-11T20:54:19.720Z,3.25
2023-02-11T21:03:11.185Z,3.29
2023-02-11T21:08:52.908Z,2.58
2023-02-11T21:11:25.025Z,2.73
2023-02-11T21:14:37.998Z,2.95
2023-02-11T21:23:46.215Z,2.95
2023-02-11T21:26:24.949Z,2.91
2023-02-11T21:28:57.805Z,2.52
2023-02-11T21:31:33.499Z,2.09
2023-02-11T21:34:05.354Z,2.36
2023-02-11T21:36:35.114Z,3.67
2023-02-11T21:39:04.472Z,3.33
2023-02-11T21:41:34.232Z,3.37
2023-02-11T21:44:02.177Z,3.57
2023-02-11T21:46:32.983Z,3.49
2023-02-11T21:49:03.238Z,3.76
2023-02-11T21:54:15.761Z,3.03
2023-02-11T21:56:49.991Z,3.00
2023-02-11T21:59:25.709Z,3.06
2023-02-11T22:01:55.467Z,2.99
2023-02-11T22:04:25.291Z,2.83
2023-02-11T22:06:56.624Z,3.16
2023-02-11T22:09:27.848Z,2.67
2023-02-11T22:11:59.686Z,2.90
2023-02-11T22:14:32.451Z,2.56
2023-02-11T22:17:05.607Z,2.45
2023-02-11T22:19:36.519Z,2.25
2023-02-11T22:22:09.813Z,2.24
2023-02-11T22:24:39.088Z,2.89
2023-02-11T22:27:11.661Z,2.19
2023-02-11T22:29:41.636Z,2.55
2023-02-11T22:32:12.656Z,2.10
2023-02-11T22:34:53.518Z,2.31
2023-02-11T22:37:23.816Z,3.03
2023-02-11T22:39:53.400Z,3.07
2023-02-11T22:42:27.026Z,2.55
2023-02-11T22:44:56.266Z,2.33
2023-02-11T22:47:29.584Z,3.05
2023-02-11T22:49:59.289Z,2.28
2023-02-11T22:52:29.439Z,3.03
2023-02-11T22:55:02.176Z,2.69
2023-02-11T22:57:33.488Z,2.69
2023-02-11T23:00:02.523Z,2.47
2023-02-11T23:02:32.884Z,2.50
2023-02-11T23:05:07.453Z,2.77
2023-02-11T23:07:37.465Z,2.14
2023-02-11T23:10:06.968Z,2.55
2023-02-11T23:12:36.665Z,2.63
2023-02-11T23:15:09.766Z,2.23
2023-02-11T23:17:38.307Z,2.14
2023-02-11T23:20:26.141Z,2.22
2023-02-11T23:22:57.863Z,2.32
2023-02-11T23:25:29.395Z,3.04
2023-02-11T23:28:01.056Z,2.43
2023-02-11T23:30:37.029Z,2.31
2023-02-11T23:33:08.732Z,3.08
2023-02-11T23:35:39.894Z,2.36
2023-02-11T23:38:08.264Z,2.31
2023-02-11T23:40:41.424Z,2.80
2023-02-11T23:43:10.046Z,2.40
2023-02-11T23:45:40.086Z,2.33
2023-02-11T23:48:09.523Z,2.83
2023-02-11T23:50:40.906Z,2.44
2023-02-11T23:53:09.945Z,2.63
2023-02-11T23:55:49.682Z,2.46
2023-02-11T23:58:19.255Z,2.39
